sensor_id;sensor_type;location;lat;lon;timestamp;temperature;humidity
17726;DHT22;8983;53.156;17.960;2023-03-17T00:01:47;0.50;99.90
17726;DHT22;8983;53.156;17.960;2023-03-17T00:04:17;0.50;99.90
17726;DHT22;8983;53.156;17.960;2023-03-17T00:06:46;0.50;99.90
17726;DHT22;8983;53.156;17.960;2023-03-17T00:09:15;0.40;99.90
17726;DHT22;8983;53.156;17.960;2023-03-17T00:11:44;0.50;99.90
17726;DHT22;8983;53.156;17.960;2023-03-17T00:14:14;0.50;99.90
17726;DHT22;8983;53.156;17.960;2023-03-17T00:16:44;0.40;99.90
17726;DHT22;8983;53.156;17.960;2023-03-17T00:19:13;0.40;99.90
17726;DHT22;8983;53.156;17.960;2023-03-17T00:24:12;0.40;99.90
17726;DHT22;8983;53.156;17.960;2023-03-17T00:31:40;0.40;99.90
17726;DHT22;8983;53.156;17.960;2023-03-17T00:34:13;0.30;99.90
17726;DHT22;8983;53.156;17.960;2023-03-17T00:36:45;0.60;99.90
17726;DHT22;8983;53.156;17.960;2023-03-17T00:46:41;0.30;99.90
17726;DHT22;8983;53.156;17.960;2023-03-17T00:49:14;0.20;99.90
17726;DHT22;8983;53.156;17.960;2023-03-17T00:56:39;0.30;99.90
17726;DHT22;8983;53.156;17.960;2023-03-17T00:59:17;0.30;99.90
17726;DHT22;8983;53.156;17.960;2023-03-17T01:01:47;0.30;99.90
17726;DHT22;8983;53.156;17.960;2023-03-17T01:06:45;0.20;99.90
17726;DHT22;8983;53.156;17.960;2023-03-17T01:09:15;0.20;99.90
17726;DHT22;8983;53.156;17.960;2023-03-17T01:11:44;0.30;99.90
17726;DHT22;8983;53.156;17.960;2023-03-17T01:14:12;0.20;99.90
17726;DHT22;8983;53.156;17.960;2023-03-17T01:16:41;0.30;99.90
17726;DHT22;8983;53.156;17.960;2023-03-17T01:19:12;0.20;99.90
17726;DHT22;8983;53.156;17.960;2023-03-17T01:21:40;0.20;99.90
17726;DHT22;8983;53.156;17.960;2023-03-17T01:24:09;0.10;99.90
17726;DHT22;8983;53.156;17.960;2023-03-17T01:26:37;0.10;99.90
17726;DHT22;8983;53.156;17.960;2023-03-17T01:29:06;0.20;99.90
17726;DHT22;8983;53.156;17.960;2023-03-17T01:31:34;0.20;99.90
17726;DHT22;8983;53.156;17.960;2023-03-17T01:34:03;0.20;99.90
17726;DHT22;8983;53.156;17.960;2023-03-17T01:36:33;0.20;99.90
17726;DHT22;8983;53.156;17.960;2023-03-17T01:39:01;0.20;99.90
17726;DHT22;8983;53.156;17.960;2023-03-17T01:41:32;0.20;99.90
17726;DHT22;8983;53.156;17.960;2023-03-17T01:44:01;0.10;99.90
17726;DHT22;8983;53.156;17.960;2023-03-17T01:46:30;0.20;99.90
17726;DHT22;8983;53.156;17.960;2023-03-17T01:49:09;0.20;99.90
17726;DHT22;8983;53.156;17.960;2023-03-17T01:51:50;0.20;99.90
17726;DHT22;8983;53.156;17.960;2023-03-17T01:54:23;0.30;99.90
17726;DHT22;8983;53.156;17.960;2023-03-17T01:56:55;0.30;99.90
17726;DHT22;8983;53.156;17.960;2023-03-17T01:59:27;0.30;99.90
17726;DHT22;8983;53.156;17.960;2023-03-17T02:02:01;0.30;99.90
17726;DHT22;8983;53.156;17.960;2023-03-17T02:04:30;0.30;99.90
17726;DHT22;8983;53.156;17.960;2023-03-17T02:07:02;0.40;99.90
17726;DHT22;8983;53.156;17.960;2023-03-17T02:09:31;0.30;99.90
17726;DHT22;8983;53.156;17.960;2023-03-17T02:12:00;0.40;99.90
17726;DHT22;8983;53.156;17.960;2023-03-17T02:19:26;0.70;99.90
17726;DHT22;8983;53.156;17.960;2023-03-17T02:21:57;0.30;99.90
17726;DHT22;8983;53.156;17.960;2023-03-17T02:24:30;0.40;99.90
17726;DHT22;8983;53.156;17.960;2023-03-17T02:27:03;0.40;99.90
17726;DHT22;8983;53.156;17.960;2023-03-17T02:29:34;0.50;99.90
17726;DHT22;8983;53.156;17.960;2023-03-17T02:32:04;0.50;99.90
17726;DHT22;8983;53.156;17.960;2023-03-17T02:34:33;0.50;99.90
17726;DHT22;8983;53.156;17.960;2023-03-17T02:37:03;0.50;99.90
17726;DHT22;8983;53.156;17.960;2023-03-17T02:39:31;0.30;99.90
17726;DHT22;8983;53.156;17.960;2023-03-17T02:41:59;0.60;99.90
17726;DHT22;8983;53.156;17.960;2023-03-17T02:49:24;0.30;99.90
17726;DHT22;8983;53.156;17.960;2023-03-17T02:51:53;0.50;99.90
17726;DHT22;8983;53.156;17.960;2023-03-17T02:54:22;0.60;99.90
17726;DHT22;8983;53.156;17.960;2023-03-17T03:01:47;0.60;99.90
17726;DHT22;8983;53.156;17.960;2023-03-17T03:04:17;0.60;99.90
17726;DHT22;8983;53.156;17.960;2023-03-17T03:06:45;0.60;99.90
17726;DHT22;8983;53.156;17.960;2023-03-17T03:09:14;0.60;99.90
17726;DHT22;8983;53.156;17.960;2023-03-17T03:11:45;0.50;99.90
17726;DHT22;8983;53.156;17.960;2023-03-17T03:14:13;0.50;99.90
17726;DHT22;8983;53.156;17.960;2023-03-17T03:16:41;0.50;99.90
17726;DHT22;8983;53.156;17.960;2023-03-17T03:19:10;0.50;99.90
17726;DHT22;8983;53.156;17.960;2023-03-17T03:24:07;0.70;99.90
17726;DHT22;8983;53.156;17.960;2023-03-17T03:26:36;0.50;99.90
17726;DHT22;8983;53.156;17.960;2023-03-17T03:29:06;0.50;99.90
17726;DHT22;8983;53.156;17.960;2023-03-17T03:36:31;0.50;99.90
17726;DHT22;8983;53.156;17.960;2023-03-17T03:38:59;0.50;99.90
17726;DHT22;8983;53.156;17.960;2023-03-17T03:41:28;0.50;99.90
17726;DHT22;8983;53.156;17.960;2023-03-17T03:43:56;0.50;99.90
17726;DHT22;8983;53.156;17.960;2023-03-17T03:46:25;0.50;99.90
17726;DHT22;8983;53.156;17.960;2023-03-17T03:48:54;0.60;99.90
17726;DHT22;8983;53.156;17.960;2023-03-17T03:51:22;0.60;99.90
17726;DHT22;8983;53.156;17.960;2023-03-17T03:53:50;0.60;99.90
17726;DHT22;8983;53.156;17.960;2023-03-17T03:56:18;0.60;99.90
17726;DHT22;8983;53.156;17.960;2023-03-17T03:58:46;0.60;99.90
17726;DHT22;8983;53.156;17.960;2023-03-17T04:01:14;0.60;99.90
17726;DHT22;8983;53.156;17.960;2023-03-17T04:03:44;0.60;99.90
17726;DHT22;8983;53.156;17.960;2023-03-17T04:06:13;0.50;99.90
17726;DHT22;8983;53.156;17.960;2023-03-17T04:08:41;0.50;99.90
17726;DHT22;8983;53.156;17.960;2023-03-17T04:11:09;0.60;99.90
17726;DHT22;8983;53.156;17.960;2023-03-17T04:13:38;0.60;99.90
17726;DHT22;8983;53.156;17.960;2023-03-17T04:18:35;0.60;99.90
17726;DHT22;8983;53.156;17.960;2023-03-17T04:21:05;0.60;99.90
17726;DHT22;8983;53.156;17.960;2023-03-17T04:23:34;0.60;99.90
17726;DHT22;8983;53.156;17.960;2023-03-17T04:26:02;0.60;99.90
17726;DHT22;8983;53.156;17.960;2023-03-17T04:28:30;0.60;99.90
17726;DHT22;8983;53.156;17.960;2023-03-17T04:30:59;0.60;99.90
17726;DHT22;8983;53.156;17.960;2023-03-17T04:33:27;0.60;99.90
17726;DHT22;8983;53.156;17.960;2023-03-17T04:38:25;0.60;99.90
17726;DHT22;8983;53.156;17.960;2023-03-17T04:40:53;0.50;99.90
17726;DHT22;8983;53.156;17.960;2023-03-17T04:45:50;0.50;99.90
17726;DHT22;8983;53.156;17.960;2023-03-17T04:48:18;0.50;99.90
17726;DHT22;8983;53.156;17.960;2023-03-17T04:50:47;0.50;99.90
17726;DHT22;8983;53.156;17.960;2023-03-17T04:53:15;0.60;99.90
17726;DHT22;8983;53.156;17.960;2023-03-17T04:55:45;0.60;99.90
17726;DHT22;8983;53.156;17.960;2023-03-17T04:58:13;0.60;99.90
17726;DHT22;8983;53.156;17.960;2023-03-17T05:00:56;0.70;99.90
17726;DHT22;8983;53.156;17.960;2023-03-17T05:03:24;0.70;99.90
17726;DHT22;8983;53.156;17.960;2023-03-17T05:05:54;0.70;99.90
17726;DHT22;8983;53.156;17.960;2023-03-17T05:08:23;0.70;99.90
17726;DHT22;8983;53.156;17.960;2023-03-17T05:10:53;0.80;99.90
17726;DHT22;8983;53.156;17.960;2023-03-17T05:13:22;0.80;99.90
17726;DHT22;8983;53.156;17.960;2023-03-17T05:15:51;0.80;99.90
17726;DHT22;8983;53.156;17.960;2023-03-17T05:18:21;0.80;99.90
17726;DHT22;8983;53.156;17.960;2023-03-17T05:20:50;0.80;99.90
17726;DHT22;8983;53.156;17.960;2023-03-17T05:23:19;0.80;99.90
17726;DHT22;8983;53.156;17.960;2023-03-17T05:25:48;0.90;99.90
17726;DHT22;8983;53.156;17.960;2023-03-17T05:28:18;0.90;99.90
17726;DHT22;8983;53.156;17.960;2023-03-17T05:35:43;1.20;99.90
17726;DHT22;8983;53.156;17.960;2023-03-17T05:38:12;0.80;99.90
17726;DHT22;8983;53.156;17.960;2023-03-17T05:40:41;0.70;99.90
17726;DHT22;8983;53.156;17.960;2023-03-17T05:58:04;0.90;99.90
17726;DHT22;8983;53.156;17.960;2023-03-17T06:00:33;1.00;99.90
17726;DHT22;8983;53.156;17.960;2023-03-17T06:03:03;0.90;99.90
17726;DHT22;8983;53.156;17.960;2023-03-17T06:05:32;1.00;99.90
17726;DHT22;8983;53.156;17.960;2023-03-17T06:08:00;1.00;99.90
17726;DHT22;8983;53.156;17.960;2023-03-17T06:10:31;1.10;99.90
17726;DHT22;8983;53.156;17.960;2023-03-17T06:13:00;1.10;99.90
17726;DHT22;8983;53.156;17.960;2023-03-17T06:20:28;1.20;99.90
17726;DHT22;8983;53.156;17.960;2023-03-17T06:22:57;1.30;99.90
17726;DHT22;8983;53.156;17.960;2023-03-17T06:25:31;1.30;99.90
17726;DHT22;8983;53.156;17.960;2023-03-17T06:28:00;1.30;99.90
17726;DHT22;8983;53.156;17.960;2023-03-17T06:32:59;1.40;99.90
17726;DHT22;8983;53.156;17.960;2023-03-17T06:35:29;1.40;99.90
17726;DHT22;8983;53.156;17.960;2023-03-17T06:37:58;1.40;99.90
17726;DHT22;8983;53.156;17.960;2023-03-17T06:40:28;1.40;99.90
17726;DHT22;8983;53.156;17.960;2023-03-17T06:42:56;1.40;99.90
17726;DHT22;8983;53.156;17.960;2023-03-17T06:45:24;1.50;99.90
17726;DHT22;8983;53.156;17.960;2023-03-17T06:47:52;1.60;99.90
17726;DHT22;8983;53.156;17.960;2023-03-17T06:50:20;1.60;99.90
17726;DHT22;8983;53.156;17.960;2023-03-17T06:52:49;1.60;99.90
17726;DHT22;8983;53.156;17.960;2023-03-17T06:55:18;1.60;99.90
17726;DHT22;8983;53.156;17.960;2023-03-17T07:00:17;1.60;99.90
17726;DHT22;8983;53.156;17.960;2023-03-17T07:02:47;1.60;99.90
17726;DHT22;8983;53.156;17.960;2023-03-17T07:20:09;2.20;99.90
17726;DHT22;8983;53.156;17.960;2023-03-17T07:22:40;2.70;99.90
17726;DHT22;8983;53.156;17.960;2023-03-17T07:30:09;2.50;99.90
17726;DHT22;8983;53.156;17.960;2023-03-17T07:45:05;2.60;99.90
17726;DHT22;8983;53.156;17.960;2023-03-17T08:19:48;3.40;99.90
17726;DHT22;8983;53.156;17.960;2023-03-17T08:27:13;3.60;99.90
17726;DHT22;8983;53.156;17.960;2023-03-17T08:59:30;4.70;99.90
17726;DHT22;8983;53.156;17.960;2023-03-17T09:12:03;5.50;99.90
17726;DHT22;8983;53.156;17.960;2023-03-17T09:24:36;5.60;99.90
17726;DHT22;8983;53.156;17.960;2023-03-17T09:27:04;5.90;99.90
17726;DHT22;8983;53.156;17.960;2023-03-17T09:29:32;5.80;99.90
17726;DHT22;8983;53.156;17.960;2023-03-17T09:32:01;5.70;99.90
17726;DHT22;8983;53.156;17.960;2023-03-17T09:42:03;6.50;99.90
17726;DHT22;8983;53.156;17.960;2023-03-17T09:44:46;6.60;99.90
17726;DHT22;8983;53.156;17.960;2023-03-17T09:47:31;6.80;99.90
17726;DHT22;8983;53.156;17.960;2023-03-17T09:50:10;7.00;99.90
17726;DHT22;8983;53.156;17.960;2023-03-17T09:55:19;7.20;99.90
17726;DHT22;8983;53.156;17.960;2023-03-17T10:00:20;7.20;99.90
17726;DHT22;8983;53.156;17.960;2023-03-17T10:02:52;7.30;99.90
17726;DHT22;8983;53.156;17.960;2023-03-17T10:05:23;7.30;99.90
17726;DHT22;8983;53.156;17.960;2023-03-17T10:08:00;7.40;99.90
17726;DHT22;8983;53.156;17.960;2023-03-17T10:10:36;7.40;99.90
17726;DHT22;8983;53.156;17.960;2023-03-17T10:13:16;7.40;99.90
17726;DHT22;8983;53.156;17.960;2023-03-17T10:15:50;7.50;99.90
17726;DHT22;8983;53.156;17.960;2023-03-17T10:18:24;7.50;99.90
17726;DHT22;8983;53.156;17.960;2023-03-17T10:23:24;7.50;99.90
17726;DHT22;8983;53.156;17.960;2023-03-17T10:25:55;7.50;99.90
17726;DHT22;8983;53.156;17.960;2023-03-17T10:28:29;7.50;99.90
17726;DHT22;8983;53.156;17.960;2023-03-17T10:31:04;7.50;99.90
17726;DHT22;8983;53.156;17.960;2023-03-17T10:41:08;7.60;99.90
17726;DHT22;8983;53.156;17.960;2023-03-17T10:43:44;7.70;99.90
17726;DHT22;8983;53.156;17.960;2023-03-17T10:46:18;7.70;99.90
17726;DHT22;8983;53.156;17.960;2023-03-17T10:48:52;7.80;99.90
17726;DHT22;8983;53.156;17.960;2023-03-17T10:51:29;7.80;99.90
17726;DHT22;8983;53.156;17.960;2023-03-17T10:53:59;7.70;99.90
17726;DHT22;8983;53.156;17.960;2023-03-17T10:56:34;7.70;99.90
17726;DHT22;8983;53.156;17.960;2023-03-17T10:59:14;7.70;99.90
17726;DHT22;8983;53.156;17.960;2023-03-17T11:01:48;7.80;99.90
17726;DHT22;8983;53.156;17.960;2023-03-17T11:04:29;7.80;99.90
17726;DHT22;8983;53.156;17.960;2023-03-17T11:07:04;7.80;99.90
17726;DHT22;8983;53.156;17.960;2023-03-17T11:09:34;7.80;99.70
17726;DHT22;8983;53.156;17.960;2023-03-17T11:12:05;7.90;98.70
17726;DHT22;8983;53.156;17.960;2023-03-17T11:14:35;7.90;97.90
17726;DHT22;8983;53.156;17.960;2023-03-17T11:17:15;7.90;98.10
17726;DHT22;8983;53.156;17.960;2023-03-17T11:19:51;8.00;98.10
17726;DHT22;8983;53.156;17.960;2023-03-17T11:22:26;8.00;98.10
17726;DHT22;8983;53.156;17.960;2023-03-17T11:25:00;8.10;97.90
17726;DHT22;8983;53.156;17.960;2023-03-17T11:27:33;8.20;97.60
17726;DHT22;8983;53.156;17.960;2023-03-17T11:30:14;8.30;99.90
17726;DHT22;8983;53.156;17.960;2023-03-17T11:32:49;7.90;99.90
17726;DHT22;8983;53.156;17.960;2023-03-17T11:35:39;8.40;99.90
17726;DHT22;8983;53.156;17.960;2023-03-17T11:38:24;8.40;99.90
17726;DHT22;8983;53.156;17.960;2023-03-17T11:41:13;8.40;97.00
17726;DHT22;8983;53.156;17.960;2023-03-17T11:44:02;8.60;96.80
17726;DHT22;8983;53.156;17.960;2023-03-17T11:46:36;9.00;96.30
17726;DHT22;8983;53.156;17.960;2023-03-17T11:49:11;9.40;96.20
17726;DHT22;8983;53.156;17.960;2023-03-17T11:51:48;10.20;99.90
17726;DHT22;8983;53.156;17.960;2023-03-17T11:54:22;10.60;99.90
17726;DHT22;8983;53.156;17.960;2023-03-17T11:56:56;10.60;94.60
17726;DHT22;8983;53.156;17.960;2023-03-17T11:59:31;11.00;96.50
17726;DHT22;8983;53.156;17.960;2023-03-17T12:02:09;11.20;97.50
17726;DHT22;8983;53.156;17.960;2023-03-17T12:04:48;11.50;95.10
17726;DHT22;8983;53.156;17.960;2023-03-17T12:07:21;11.70;94.40
17726;DHT22;8983;53.156;17.960;2023-03-17T12:09:59;11.90;94.60
17726;DHT22;8983;53.156;17.960;2023-03-17T12:12:33;12.00;93.30
17726;DHT22;8983;53.156;17.960;2023-03-17T12:15:03;12.20;93.10
17726;DHT22;8983;53.156;17.960;2023-03-17T12:17:36;12.20;99.90
17726;DHT22;8983;53.156;17.960;2023-03-17T12:20:10;12.40;91.50
17726;DHT22;8983;53.156;17.960;2023-03-17T12:22:46;12.20;97.20
17726;DHT22;8983;53.156;17.960;2023-03-17T12:25:20;12.20;90.20
17726;DHT22;8983;53.156;17.960;2023-03-17T12:27:55;12.00;90.00
17726;DHT22;8983;53.156;17.960;2023-03-17T12:30:29;12.00;89.10
17726;DHT22;8983;53.156;17.960;2023-03-17T12:33:09;12.10;89.50
17726;DHT22;8983;53.156;17.960;2023-03-17T12:38:10;12.50;88.10
17726;DHT22;8983;53.156;17.960;2023-03-17T12:43:35;12.70;90.50
17726;DHT22;8983;53.156;17.960;2023-03-17T12:46:22;12.60;99.50
17726;DHT22;8983;53.156;17.960;2023-03-17T12:49:16;12.90;91.10
17726;DHT22;8983;53.156;17.960;2023-03-17T12:52:05;12.90;80.20
17726;DHT22;8983;53.156;17.960;2023-03-17T12:54:36;13.00;82.50
17726;DHT22;8983;53.156;17.960;2023-03-17T12:57:12;13.10;80.30
17726;DHT22;8983;53.156;17.960;2023-03-17T12:59:42;13.20;81.60
17726;DHT22;8983;53.156;17.960;2023-03-17T13:04:51;13.60;90.30
17726;DHT22;8983;53.156;17.960;2023-03-17T13:07:31;13.70;88.40
17726;DHT22;8983;53.156;17.960;2023-03-17T13:13:09;13.50;86.10
17726;DHT22;8983;53.156;17.960;2023-03-17T13:15:51;13.70;99.90
17726;DHT22;8983;53.156;17.960;2023-03-17T13:21:13;13.10;98.40
17726;DHT22;8983;53.156;17.960;2023-03-17T13:23:43;13.20;83.40
17726;DHT22;8983;53.156;17.960;2023-03-17T13:26:13;13.70;82.00
17726;DHT22;8983;53.156;17.960;2023-03-17T13:28:45;13.70;99.60
17726;DHT22;8983;53.156;17.960;2023-03-17T13:31:31;13.50;83.10
17726;DHT22;8983;53.156;17.960;2023-03-17T13:34:12;13.80;92.20
17726;DHT22;8983;53.156;17.960;2023-03-17T13:36:48;13.60;78.40
17726;DHT22;8983;53.156;17.960;2023-03-17T13:42:40;13.60;80.40
17726;DHT22;8983;53.156;17.960;2023-03-17T13:45:34;13.50;82.80
17726;DHT22;8983;53.156;17.960;2023-03-17T13:48:26;13.50;77.40
17726;DHT22;8983;53.156;17.960;2023-03-17T13:50:58;13.50;81.00
17726;DHT22;8983;53.156;17.960;2023-03-17T13:53:30;13.60;82.30
17726;DHT22;8983;53.156;17.960;2023-03-17T13:56:08;13.70;83.20
17726;DHT22;8983;53.156;17.960;2023-03-17T13:58:50;13.70;81.30
17726;DHT22;8983;53.156;17.960;2023-03-17T14:01:20;13.80;79.10
17726;DHT22;8983;53.156;17.960;2023-03-17T14:03:50;13.80;77.70
17726;DHT22;8983;53.156;17.960;2023-03-17T14:06:23;13.70;77.70
17726;DHT22;8983;53.156;17.960;2023-03-17T14:08:59;13.60;77.20
17726;DHT22;8983;53.156;17.960;2023-03-17T14:11:31;13.50;72.70
17726;DHT22;8983;53.156;17.960;2023-03-17T14:14:28;13.40;95.60
17726;DHT22;8983;53.156;17.960;2023-03-17T14:17:08;13.40;77.70
17726;DHT22;8983;53.156;17.960;2023-03-17T14:22:19;13.30;80.60
17726;DHT22;8983;53.156;17.960;2023-03-17T14:24:54;13.20;97.10
17726;DHT22;8983;53.156;17.960;2023-03-17T14:27:26;13.10;74.70
17726;DHT22;8983;53.156;17.960;2023-03-17T14:29:55;13.00;63.00
17726;DHT22;8983;53.156;17.960;2023-03-17T14:32:23;13.10;61.50
17726;DHT22;8983;53.156;17.960;2023-03-17T14:34:57;13.10;62.10
17726;DHT22;8983;53.156;17.960;2023-03-17T14:37:26;13.10;61.80
17726;DHT22;8983;53.156;17.960;2023-03-17T14:39:57;13.00;61.30
17726;DHT22;8983;53.156;17.960;2023-03-17T14:42:27;12.90;60.50
17726;DHT22;8983;53.156;17.960;2023-03-17T14:45:03;12.80;60.80
17726;DHT22;8983;53.156;17.960;2023-03-17T14:47:35;12.70;61.50
17726;DHT22;8983;53.156;17.960;2023-03-17T14:50:05;12.70;61.70
17726;DHT22;8983;53.156;17.960;2023-03-17T14:52:40;12.70;61.90
17726;DHT22;8983;53.156;17.960;2023-03-17T14:55:13;12.70;61.80
17726;DHT22;8983;53.156;17.960;2023-03-17T14:57:48;12.70;61.40
17726;DHT22;8983;53.156;17.960;2023-03-17T15:00:32;12.70;61.50
17726;DHT22;8983;53.156;17.960;2023-03-17T15:03:03;12.70;61.20
17726;DHT22;8983;53.156;17.960;2023-03-17T15:05:43;12.60;61.00
17726;DHT22;8983;53.156;17.960;2023-03-17T15:08:38;12.40;77.10
17726;DHT22;8983;53.156;17.960;2023-03-17T15:11:20;12.40;60.60
17726;DHT22;8983;53.156;17.960;2023-03-17T15:13:49;12.30;94.30
17726;DHT22;8983;53.156;17.960;2023-03-17T15:16:22;12.30;75.40
17726;DHT22;8983;53.156;17.960;2023-03-17T15:19:01;12.40;77.60
17726;DHT22;8983;53.156;17.960;2023-03-17T15:21:33;12.30;75.40
17726;DHT22;8983;53.156;17.960;2023-03-17T15:24:18;12.30;77.20
17726;DHT22;8983;53.156;17.960;2023-03-17T15:26:50;12.30;81.20
17726;DHT22;8983;53.156;17.960;2023-03-17T15:29:24;12.50;60.70
17726;DHT22;8983;53.156;17.960;2023-03-17T15:54:12;11.30;77.40
17726;DHT22;8983;53.156;17.960;2023-03-17T15:56:41;11.30;63.40
17726;DHT22;8983;53.156;17.960;2023-03-17T15:59:10;11.20;63.80
17726;DHT22;8983;53.156;17.960;2023-03-17T16:01:40;11.10;64.50
17726;DHT22;8983;53.156;17.960;2023-03-17T16:04:08;11.00;65.20
17726;DHT22;8983;53.156;17.960;2023-03-17T16:06:36;10.90;65.90
17726;DHT22;8983;53.156;17.960;2023-03-17T16:09:08;10.80;66.50
17726;DHT22;8983;53.156;17.960;2023-03-17T16:11:39;10.80;66.90
17726;DHT22;8983;53.156;17.960;2023-03-17T16:14:09;10.60;67.30
17726;DHT22;8983;53.156;17.960;2023-03-17T16:16:40;10.60;68.60
17726;DHT22;8983;53.156;17.960;2023-03-17T16:19:17;10.50;68.20
17726;DHT22;8983;53.156;17.960;2023-03-17T16:21:46;10.50;68.80
17726;DHT22;8983;53.156;17.960;2023-03-17T16:24:17;10.40;69.10
17726;DHT22;8983;53.156;17.960;2023-03-17T16:26:46;10.40;69.60
17726;DHT22;8983;53.156;17.960;2023-03-17T16:29:14;10.30;70.00
17726;DHT22;8983;53.156;17.960;2023-03-17T16:31:46;10.20;70.40
17726;DHT22;8983;53.156;17.960;2023-03-17T16:34:16;10.20;70.70
17726;DHT22;8983;53.156;17.960;2023-03-17T16:36:44;10.10;71.10
17726;DHT22;8983;53.156;17.960;2023-03-17T16:39:15;10.00;71.50
17726;DHT22;8983;53.156;17.960;2023-03-17T16:41:44;9.90;71.90
17726;DHT22;8983;53.156;17.960;2023-03-17T16:44:14;9.90;72.30
17726;DHT22;8983;53.156;17.960;2023-03-17T16:46:44;9.70;72.50
17726;DHT22;8983;53.156;17.960;2023-03-17T16:49:13;9.70;72.90
17726;DHT22;8983;53.156;17.960;2023-03-17T16:51:42;9.60;73.20
17726;DHT22;8983;53.156;17.960;2023-03-17T16:54:10;9.50;73.50
17726;DHT22;8983;53.156;17.960;2023-03-17T16:56:39;9.50;73.90
17726;DHT22;8983;53.156;17.960;2023-03-17T16:59:11;9.40;74.20
17726;DHT22;8983;53.156;17.960;2023-03-17T17:01:41;9.40;74.50
17726;DHT22;8983;53.156;17.960;2023-03-17T17:04:11;9.30;74.80
17726;DHT22;8983;53.156;17.960;2023-03-17T17:06:39;9.20;75.10
17726;DHT22;8983;53.156;17.960;2023-03-17T17:09:07;9.20;75.30
17726;DHT22;8983;53.156;17.960;2023-03-17T17:11:35;9.10;75.50
17726;DHT22;8983;53.156;17.960;2023-03-17T17:14:03;9.10;75.80
17726;DHT22;8983;53.156;17.960;2023-03-17T17:16:33;9.10;75.90
17726;DHT22;8983;53.156;17.960;2023-03-17T17:19:02;9.00;76.10
17726;DHT22;8983;53.156;17.960;2023-03-17T17:21:31;9.00;76.30
17726;DHT22;8983;53.156;17.960;2023-03-17T17:23:59;8.90;76.30
17726;DHT22;8983;53.156;17.960;2023-03-17T17:26:27;8.90;76.60
17726;DHT22;8983;53.156;17.960;2023-03-17T17:28:56;8.80;76.60
17726;DHT22;8983;53.156;17.960;2023-03-17T17:31:24;8.80;76.70
17726;DHT22;8983;53.156;17.960;2023-03-17T17:33:52;8.80;77.00
17726;DHT22;8983;53.156;17.960;2023-03-17T17:36:20;8.70;77.10
17726;DHT22;8983;53.156;17.960;2023-03-17T17:38:49;8.70;77.30
17726;DHT22;8983;53.156;17.960;2023-03-17T17:41:18;8.70;77.50
17726;DHT22;8983;53.156;17.960;2023-03-17T17:43:47;8.60;77.60
17726;DHT22;8983;53.156;17.960;2023-03-17T17:46:17;8.60;77.80
17726;DHT22;8983;53.156;17.960;2023-03-17T17:48:46;8.60;77.90
17726;DHT22;8983;53.156;17.960;2023-03-17T17:51:14;8.60;78.10
17726;DHT22;8983;53.156;17.960;2023-03-17T17:53:42;8.50;78.10
17726;DHT22;8983;53.156;17.960;2023-03-17T17:56:13;8.60;78.20
17726;DHT22;8983;53.156;17.960;2023-03-17T17:58:42;8.50;78.30
17726;DHT22;8983;53.156;17.960;2023-03-17T18:01:11;8.60;78.40
17726;DHT22;8983;53.156;17.960;2023-03-17T18:03:45;8.50;78.40
17726;DHT22;8983;53.156;17.960;2023-03-17T18:06:13;8.40;78.40
17726;DHT22;8983;53.156;17.960;2023-03-17T18:08:43;8.40;78.50
17726;DHT22;8983;53.156;17.960;2023-03-17T18:11:12;8.40;78.50
17726;DHT22;8983;53.156;17.960;2023-03-17T18:13:40;8.30;78.40
17726;DHT22;8983;53.156;17.960;2023-03-17T18:16:10;8.40;78.40
17726;DHT22;8983;53.156;17.960;2023-03-17T18:18:41;8.30;78.40
17726;DHT22;8983;53.156;17.960;2023-03-17T18:21:11;8.30;78.50
17726;DHT22;8983;53.156;17.960;2023-03-17T18:23:40;8.10;78.40
17726;DHT22;8983;53.156;17.960;2023-03-17T18:26:15;8.20;78.50
17726;DHT22;8983;53.156;17.960;2023-03-17T18:28:43;8.20;78.60
17726;DHT22;8983;53.156;17.960;2023-03-17T18:31:15;8.10;78.70
17726;DHT22;8983;53.156;17.960;2023-03-17T18:33:45;8.20;79.00
17726;DHT22;8983;53.156;17.960;2023-03-17T18:36:14;8.00;79.00
17726;DHT22;8983;53.156;17.960;2023-03-17T18:38:42;8.00;79.20
17726;DHT22;8983;53.156;17.960;2023-03-17T18:41:10;8.00;79.30
17726;DHT22;8983;53.156;17.960;2023-03-17T18:43:39;7.90;79.40
17726;DHT22;8983;53.156;17.960;2023-03-17T18:46:10;7.90;79.60
17726;DHT22;8983;53.156;17.960;2023-03-17T18:48:39;7.80;79.60
17726;DHT22;8983;53.156;17.960;2023-03-17T18:51:07;7.80;79.80
17726;DHT22;8983;53.156;17.960;2023-03-17T18:53:35;7.80;79.90
17726;DHT22;8983;53.156;17.960;2023-03-17T18:56:05;7.80;80.00
17726;DHT22;8983;53.156;17.960;2023-03-17T18:58:33;7.80;80.30
17726;DHT22;8983;53.156;17.960;2023-03-17T19:01:03;7.70;81.10
17726;DHT22;8983;53.156;17.960;2023-03-17T19:03:32;7.70;80.60
17726;DHT22;8983;53.156;17.960;2023-03-17T19:06:07;7.70;80.70
17726;DHT22;8983;53.156;17.960;2023-03-17T19:08:35;7.70;80.90
17726;DHT22;8983;53.156;17.960;2023-03-17T19:11:04;7.70;81.00
17726;DHT22;8983;53.156;17.960;2023-03-17T19:13:33;7.70;81.00
17726;DHT22;8983;53.156;17.960;2023-03-17T19:16:03;7.70;81.00
17726;DHT22;8983;53.156;17.960;2023-03-17T19:18:32;7.70;81.10
17726;DHT22;8983;53.156;17.960;2023-03-17T19:21:00;7.70;81.10
17726;DHT22;8983;53.156;17.960;2023-03-17T19:23:29;7.60;81.80
17726;DHT22;8983;53.156;17.960;2023-03-17T19:25:58;7.70;81.10
17726;DHT22;8983;53.156;17.960;2023-03-17T19:28:26;7.70;81.10
17726;DHT22;8983;53.156;17.960;2023-03-17T19:30:55;7.70;81.10
17726;DHT22;8983;53.156;17.960;2023-03-17T19:33:24;7.70;81.10
17726;DHT22;8983;53.156;17.960;2023-03-17T19:35:53;7.70;81.10
17726;DHT22;8983;53.156;17.960;2023-03-17T19:38:23;7.60;81.10
17726;DHT22;8983;53.156;17.960;2023-03-17T19:40:51;7.60;81.00
17726;DHT22;8983;53.156;17.960;2023-03-17T19:43:19;7.70;81.10
17726;DHT22;8983;53.156;17.960;2023-03-17T19:46:05;7.60;81.00
17726;DHT22;8983;53.156;17.960;2023-03-17T19:48:35;7.60;81.00
17726;DHT22;8983;53.156;17.960;2023-03-17T19:51:03;7.60;80.90
17726;DHT22;8983;53.156;17.960;2023-03-17T19:53:31;7.60;80.80
17726;DHT22;8983;53.156;17.960;2023-03-17T19:55:59;7.60;80.80
17726;DHT22;8983;53.156;17.960;2023-03-17T19:58:27;7.50;80.70
17726;DHT22;8983;53.156;17.960;2023-03-17T20:00:55;7.50;80.70
17726;DHT22;8983;53.156;17.960;2023-03-17T20:03:23;7.50;80.70
17726;DHT22;8983;53.156;17.960;2023-03-17T20:05:53;7.50;80.60
17726;DHT22;8983;53.156;17.960;2023-03-17T20:08:21;7.50;80.60
17726;DHT22;8983;53.156;17.960;2023-03-17T20:10:50;7.50;81.30
17726;DHT22;8983;53.156;17.960;2023-03-17T20:13:20;7.50;80.50
17726;DHT22;8983;53.156;17.960;2023-03-17T20:15:48;7.50;80.40
17726;DHT22;8983;53.156;17.960;2023-03-17T20:18:17;7.50;80.40
17726;DHT22;8983;53.156;17.960;2023-03-17T20:20:49;7.40;80.50
17726;DHT22;8983;53.156;17.960;2023-03-17T20:23:19;7.40;80.50
17726;DHT22;8983;53.156;17.960;2023-03-17T20:25:49;7.40;80.50
17726;DHT22;8983;53.156;17.960;2023-03-17T20:28:18;7.40;80.40
17726;DHT22;8983;53.156;17.960;2023-03-17T20:30:47;7.40;80.40
17726;DHT22;8983;53.156;17.960;2023-03-17T20:33:16;7.40;80.50
17726;DHT22;8983;53.156;17.960;2023-03-17T20:35:45;7.40;80.60